createdAt,value
2023-04-15T00:00:59.681Z,99182.16
2023-04-15T00:03:28.655Z,99178.13
2023-04-15T00:05:57.110Z,99179.13
2023-04-15T00:08:25.576Z,99180.97
2023-04-15T00:10:54.365Z,99182.97
2023-04-15T00:13:22.720Z,99181.63
2023-04-15T00:15:50.787Z,99185.34
2023-04-15T00:18:20.235Z,99183.66
2023-04-15T00:20:48.375Z,99184.84
2023-04-15T00:23:16.493Z,99188.50
2023-04-15T00:25:44.683Z,99185.97
2023-04-15T00:28:12.820Z,99182.59
2023-04-15T00:30:41.678Z,99190.88
2023-04-15T00:33:09.820Z,99175.84
2023-04-15T00:35:39.493Z,99174.28
2023-04-15T00:38:08.204Z,99180.84
2023-04-15T00:40:36.618Z,99172.78
2023-04-15T00:43:05.741Z,99178.50
2023-04-15T00:45:34.243Z,99175.81
2023-04-15T00:48:02.983Z,99169.72
2023-04-15T00:50:31.084Z,99171.59
2023-04-15T00:53:00.614Z,99172.72
2023-04-15T00:55:28.660Z,99173.06
2023-04-15T00:57:57.995Z,99177.44
2023-04-15T01:00:26.749Z,99173.25
2023-04-15T01:02:55.045Z,99164.47
2023-04-15T01:05:23.709Z,99163.63
2023-04-15T01:07:51.839Z,99156.00
2023-04-15T01:10:21.413Z,99163.94
2023-04-15T01:12:49.764Z,99154.31
2023-04-15T01:15:18.226Z,99153.50
2023-04-15T01:17:47.239Z,99149.41
2023-04-15T01:20:16.680Z,99156.66
2023-04-15T01:22:45.220Z,99151.25
2023-04-15T01:25:16.497Z,99154.97
2023-04-15T01:27:46.462Z,99153.28
2023-04-15T01:30:14.636Z,99161.38
2023-04-15T01:32:43.008Z,99157.16
2023-04-15T01:35:14.255Z,99162.53
2023-04-15T01:37:42.730Z,99164.56
2023-04-15T01:40:11.326Z,99166.41
2023-04-15T01:42:39.491Z,99169.28
2023-04-15T01:45:10.534Z,99171.25
2023-04-15T01:47:38.577Z,99168.72
2023-04-15T01:50:08.602Z,99169.56
2023-04-15T01:52:36.852Z,99167.88
2023-04-15T01:55:08.622Z,99166.38
2023-04-15T01:57:37.062Z,99163.69
2023-04-15T02:00:07.721Z,99166.16
2023-04-15T02:02:38.036Z,99172.75
2023-04-15T02:05:06.932Z,99165.81
2023-04-15T02:07:35.076Z,99171.72
2023-04-15T02:10:04.102Z,99173.41
2023-04-15T02:12:32.302Z,99174.41
2023-04-15T02:15:00.468Z,99168.19
2023-04-15T02:17:28.529Z,99168.19
2023-04-15T02:19:58.538Z,99166.66
2023-04-15T02:22:26.689Z,99179.28
2023-04-15T02:24:54.785Z,99162.41
2023-04-15T02:27:22.838Z,99173.19
2023-04-15T02:29:51.403Z,99177.72
2023-04-15T02:32:20.204Z,99164.41
2023-04-15T02:34:48.381Z,99179.91
2023-04-15T02:37:19.240Z,99188.16
2023-04-15T02:39:47.378Z,99189.84
2023-04-15T02:42:15.488Z,99183.78
2023-04-15T02:44:44.381Z,99179.22
2023-04-15T02:47:12.440Z,99179.38
2023-04-15T02:49:40.493Z,99180.53
2023-04-15T02:52:08.636Z,99184.06
2023-04-15T02:54:38.017Z,99185.91
2023-04-15T02:57:06.883Z,99178.84
2023-04-15T02:59:35.005Z,99173.78
2023-04-15T03:02:03.148Z,99177.31
2023-04-15T03:04:31.281Z,99164.84
2023-04-15T03:06:59.363Z,99172.09
2023-04-15T03:09:27.533Z,99172.09
2023-04-15T03:11:57.025Z,99168.72
2023-04-15T03:14:25.178Z,99168.72
2023-04-15T03:16:53.234Z,99163.47
2023-04-15T03:19:21.776Z,99164.34
2023-04-15T03:21:50.050Z,99163.81
2023-04-15T03:24:18.106Z,99167.34
2023-04-15T03:26:46.475Z,99163.97
2023-04-15T03:29:15.918Z,99166.66
2023-04-15T03:31:43.963Z,99159.59
2023-04-15T03:34:13.206Z,99159.59
2023-04-15T03:36:41.441Z,99168.66
2023-04-15T03:39:09.788Z,99166.97
2023-04-15T03:41:37.802Z,99171.53
2023-04-15T03:44:06.399Z,99181.44
2023-04-15T03:46:35.909Z,99181.44
2023-04-15T03:49:04.329Z,99179.72
2023-04-15T03:51:32.838Z,99177.03
2023-04-15T03:54:00.978Z,99182.59
2023-04-15T03:56:29.082Z,99168.44
2023-04-15T03:58:57.187Z,99170.13
2023-04-15T04:01:25.262Z,99175.69
2023-04-15T04:03:55.184Z,99169.63
2023-04-15T04:06:26.644Z,99163.38
2023-04-15T04:08:54.728Z,99168.59
2023-04-15T04:11:22.829Z,99163.56
2023-04-15T04:13:50.972Z,99164.41
2023-04-15T04:16:19.195Z,99166.50
2023-04-15T04:18:47.262Z,99170.91
2023-04-15T04:21:17.656Z,99158.44
2023-04-15T04:23:45.748Z,99165.66
2023-04-15T04:26:13.814Z,99162.13
2023-04-15T04:28:42.140Z,99163.44
2023-04-15T04:31:10.365Z,99163.97
2023-04-15T04:33:38.414Z,99167.66
2023-04-15T04:36:07.124Z,99165.81
2023-04-15T04:38:36.628Z,99161.44
2023-04-15T04:41:05.002Z,99161.44
2023-04-15T04:43:33.091Z,99165.97
2023-04-15T04:46:01.410Z,99175.91
2023-04-15T04:48:29.730Z,99163.44
2023-04-15T04:50:57.951Z,99160.59
2023-04-15T04:53:26.399Z,99172.53
2023-04-15T04:55:55.878Z,99173.38
2023-04-15T04:58:24.157Z,99166.16
2023-04-15T05:00:52.434Z,99161.75
2023-04-15T05:03:20.800Z,99161.75
2023-04-15T05:05:49.326Z,99167.44
2023-04-15T05:08:17.655Z,99162.78
2023-04-15T05:10:46.165Z,99171.81
2023-04-15T05:13:15.597Z,99177.38
2023-04-15T05:15:43.725Z,99180.91
2023-04-15T05:18:11.855Z,99171.81
2023-04-15T05:20:40.452Z,99170.84
2023-04-15T05:23:09.092Z,99166.31
2023-04-15T05:25:37.498Z,99180.63
2023-04-15T05:28:05.756Z,99172.81
2023-04-15T05:30:35.611Z,99177.22
2023-04-15T05:33:03.708Z,99172.81
2023-04-15T05:35:31.921Z,99171.81
2023-04-15T05:38:00.671Z,99179.06
2023-04-15T05:40:28.769Z,99177.38
2023-04-15T05:42:56.873Z,99175.50
2023-04-15T05:45:24.899Z,99184.44
2023-04-15T05:47:54.792Z,99183.06
2023-04-15T05:50:23.127Z,99184.59
2023-04-15T05:52:51.247Z,99194.38
2023-04-15T05:55:19.346Z,99194.38
2023-04-15T05:57:47.420Z,99189.81
2023-04-15T06:00:16.458Z,99191.00
2023-04-15T06:02:44.766Z,99195.22
2023-04-15T06:05:14.497Z,99195.22
2023-04-15T06:07:44.214Z,99195.22
2023-04-15T06:10:12.867Z,99199.75
2023-04-15T06:12:41.066Z,99205.97
2023-04-15T06:15:11.356Z,99202.44
2023-04-15T06:17:39.465Z,99213.22
2023-04-15T06:20:08.944Z,99203.28
2023-04-15T06:22:41.456Z,99214.22
2023-04-15T06:25:10.995Z,99218.47
2023-04-15T06:27:39.134Z,99226.66
2023-04-15T06:30:08.498Z,99220.44
2023-04-15T06:32:36.826Z,99228.34
2023-04-15T06:35:05.534Z,99225.81
2023-04-15T06:37:33.621Z,99226.66
2023-04-15T06:40:05.156Z,99223.97
2023-04-15T06:42:34.089Z,99231.91
2023-04-15T06:45:02.453Z,99216.22
2023-04-15T06:47:31.261Z,99233.91
2023-04-15T06:49:59.590Z,99227.00
2023-04-15T06:52:27.807Z,99241.81
2023-04-15T06:54:56.225Z,99231.91
2023-04-15T06:57:25.890Z,99233.75
2023-04-15T06:59:54.702Z,99235.47
2023-04-15T07:02:23.345Z,99235.47
2023-04-15T07:04:51.588Z,99238.16
2023-04-15T07:07:19.689Z,99242.53
2023-04-15T07:09:47.824Z,99240.69
2023-04-15T07:12:15.909Z,99238.84
2023-04-15T07:14:45.462Z,99239.69
2023-04-15T07:17:13.748Z,99235.97
2023-04-15T07:19:42.048Z,99236.81
2023-04-15T07:22:10.222Z,99240.53
2023-04-15T07:24:38.768Z,99236.81
2023-04-15T07:27:06.913Z,99240.19
2023-04-15T07:29:35.123Z,99238.50
2023-04-15T07:32:04.889Z,99240.53
2023-04-15T07:34:33.075Z,99241.88
2023-04-15T07:37:01.531Z,99243.59
2023-04-15T07:39:30.011Z,99240.91
2023-04-15T07:41:59.546Z,99253.53
2023-04-15T07:44:28.154Z,99251.69
2023-04-15T07:46:56.503Z,99257.78
2023-04-15T07:49:26.067Z,99254.09
2023-04-15T07:51:54.934Z,99252.25
2023-04-15T07:54:23.113Z,99247.00
2023-04-15T07:56:51.376Z,99247.88
2023-04-15T07:59:19.545Z,99248.72
2023-04-15T08:01:52.246Z,99240.63
2023-04-15T08:04:20.475Z,99254.09
2023-04-15T08:06:50.381Z,99249.56
2023-04-15T08:09:18.673Z,99251.56
2023-04-15T08:11:47.371Z,99246.16
2023-04-15T08:14:15.754Z,99246.31
2023-04-15T08:16:43.864Z,99243.75
2023-04-15T08:19:12.029Z,99250.72
2023-04-15T08:21:40.696Z,99254.25
2023-04-15T08:24:11.429Z,99247.00
2023-04-15T08:26:39.596Z,99259.47
2023-04-15T08:29:07.883Z,99260.31
2023-04-15T08:31:36.010Z,99261.16
2023-04-15T08:34:04.187Z,99258.47
2023-04-15T08:36:32.482Z,99259.47
2023-04-15T08:39:03.304Z,99260.16
2023-04-15T08:41:41.634Z,99261.16
2023-04-15T08:44:11.517Z,99260.31
2023-04-15T08:46:40.238Z,99266.56
2023-04-15T08:49:11.951Z,99262.84
2023-04-15T08:51:41.350Z,99273.63
2023-04-15T08:54:09.887Z,99269.09
2023-04-15T08:56:40.724Z,99268.91
2023-04-15T08:59:11.225Z,99274.47
2023-04-15T09:01:39.745Z,99256.94
2023-04-15T09:04:08.496Z,99273.31
2023-04-15T09:06:36.859Z,99273.31
2023-04-15T09:09:05.315Z,99269.59
2023-04-15T09:11:33.767Z,99276.84
2023-04-15T09:14:03.710Z,99280.38
2023-04-15T09:16:32.606Z,99268.75
2023-04-15T09:19:00.951Z,99276.69
2023-04-15T09:21:29.574Z,99282.06
2023-04-15T09:23:59.847Z,99278.53
2023-04-15T09:26:33.081Z,99285.47
2023-04-15T09:29:07.898Z,99278.25
2023-04-15T09:31:36.927Z,99267.47
2023-04-15T09:34:05.176Z,99268.31
2023-04-15T09:36:52.692Z,99272.69
2023-04-15T09:39:21.641Z,99269.00
2023-04-15T09:42:05.756Z,99266.47
2023-04-15T09:44:35.710Z,99269.69
2023-04-15T09:47:03.869Z,99277.75
2023-04-15T09:49:32.058Z,99273.22
2023-04-15T09:52:05.604Z,99271.22
2023-04-15T09:54:36.668Z,99274.78
2023-04-15T09:57:09.922Z,99276.47
2023-04-15T09:59:39.662Z,99267.38
2023-04-15T10:02:08.399Z,99275.47
2023-04-15T10:04:39.427Z,99271.06
2023-04-15T10:07:09.806Z,99279.16
2023-04-15T10:09:39.768Z,99281.84
2023-04-15T10:12:07.960Z,99275.06
2023-04-15T10:14:39.548Z,99281.00
2023-04-15T10:17:12.188Z,99274.78
2023-04-15T10:19:41.849Z,99283.69
2023-04-15T10:22:10.445Z,99283.53
2023-04-15T10:24:40.279Z,99293.63
2023-04-15T10:27:09.073Z,99290.94
2023-04-15T10:29:37.662Z,99290.94
2023-04-15T10:32:06.331Z,99286.53
2023-04-15T10:34:36.784Z,99295.31
2023-04-15T10:37:05.806Z,99294.47
2023-04-15T10:39:44.526Z,99301.53
2023-04-15T10:42:13.857Z,99289.94
2023-04-15T10:44:45.451Z,99304.06
2023-04-15T10:47:15.464Z,99295.31
2023-04-15T10:49:53.272Z,99291.78
2023-04-15T10:52:25.872Z,99294.31
2023-04-15T10:55:04.510Z,99306.78
2023-04-15T10:57:36.844Z,99299.84
2023-04-15T11:00:13.031Z,99302.69
2023-04-15T11:02:47.687Z,99311.59
2023-04-15T11:05:18.233Z,99314.47
2023-04-15T11:07:51.815Z,99326.25
2023-04-15T11:10:54.161Z,99328.09
2023-04-15T11:13:28.397Z,99324.53
2023-04-15T11:16:01.825Z,99328.25
2023-04-15T11:18:36.904Z,99325.56
2023-04-15T11:21:09.472Z,99323.69
2023-04-15T11:23:40.690Z,99326.41
2023-04-15T11:26:11.925Z,99329.94
2023-04-15T11:28:41.886Z,99328.94
2023-04-15T11:31:11.993Z,99321.53
2023-04-15T11:33:48.013Z,99329.31
2023-04-15T11:36:17.886Z,99313.16
2023-04-15T11:38:48.389Z,99316.53
2023-04-15T11:41:16.665Z,99325.31
2023-04-15T11:43:44.740Z,99319.59
2023-04-15T11:46:12.908Z,99332.09
2023-04-15T11:48:44.255Z,99332.09
2023-04-15T11:51:14.012Z,99322.16
2023-04-15T11:53:46.027Z,99331.94
2023-04-15T11:56:20.279Z,99335.31
2023-04-15T11:58:50.939Z,99326.53
2023-04-15T12:01:19.312Z,99325.69
2023-04-15T12:04:01.656Z,99330.09
2023-04-15T12:06:35.003Z,99330.09
2023-04-15T12:09:10.812Z,99337.00
2023-04-15T12:11:44.417Z,99329.94
2023-04-15T12:14:14.799Z,99336.16
2023-04-15T12:16:49.435Z,99331.63
2023-04-15T12:19:24.280Z,99328.06
2023-04-15T12:21:53.220Z,99327.75
2023-04-15T12:24:23.952Z,99328.47
2023-04-15T12:26:54.026Z,99339.94
2023-04-15T12:29:26.270Z,99329.00
2023-04-15T12:31:56.626Z,99342.31
2023-04-15T12:34:29.523Z,99330.53
2023-04-15T12:36:58.912Z,99335.91
2023-04-15T12:39:30.653Z,99343.84
2023-04-15T12:42:00.358Z,99339.28
2023-04-15T12:44:29.095Z,99334.91
2023-04-15T12:46:57.885Z,99338.44
2023-04-15T12:49:26.722Z,99341.28
2023-04-15T12:51:56.359Z,99337.91
2023-04-15T12:54:24.665Z,99345.69
2023-04-15T12:56:55.506Z,99354.59
2023-04-15T12:59:24.892Z,99354.78
2023-04-15T13:01:53.732Z,99350.38
2023-04-15T13:04:22.631Z,99360.84
2023-04-15T13:06:53.617Z,99356.47
2023-04-15T13:09:21.760Z,99358.88
2023-04-15T13:11:51.134Z,99363.41
2023-04-15T13:14:20.649Z,99362.53
2023-04-15T13:16:48.733Z,99361.56
2023-04-15T13:19:16.978Z,99357.84
2023-04-15T13:21:45.147Z,99370.50
2023-04-15T13:24:13.265Z,99350.06
2023-04-15T13:26:41.955Z,99354.44
2023-04-15T13:29:10.079Z,99363.25
2023-04-15T13:31:39.639Z,99366.78
2023-04-15T13:34:07.945Z,99368.63
2023-04-15T13:36:36.260Z,99364.94
2023-04-15T13:39:05.558Z,99365.94
2023-04-15T13:41:33.870Z,99363.09
2023-04-15T13:44:01.968Z,99360.56
2023-04-15T13:46:30.034Z,99370.16
2023-04-15T13:48:59.922Z,99375.72
2023-04-15T13:51:28.216Z,99379.25
2023-04-15T13:53:56.801Z,99372.00
2023-04-15T13:56:25.119Z,99378.41
2023-04-15T13:58:54.862Z,99380.25
2023-04-15T14:01:28.550Z,99386.50
2023-04-15T14:03:57.588Z,99381.09
2023-04-15T14:06:27.984Z,99383.81
2023-04-15T14:08:56.119Z,99386.34
2023-04-15T14:11:24.372Z,99390.88
2023-04-15T14:13:52.552Z,99390.88
2023-04-15T14:16:20.713Z,99391.72
2023-04-15T14:18:48.865Z,99389.88
2023-04-15T14:21:17.086Z,99397.97
2023-04-15T14:23:46.475Z,99387.19
2023-04-15T14:26:14.877Z,99392.56
2023-04-15T14:28:45.055Z,99400.50
2023-04-15T14:31:14.259Z,99406.03
2023-04-15T14:33:42.832Z,99406.03
2023-04-15T14:36:11.446Z,99403.34
2023-04-15T14:38:40.173Z,99405.19
2023-04-15T14:41:10.604Z,99413.28
2023-04-15T14:43:39.130Z,99407.03
2023-04-15T14:46:08.589Z,99414.28
2023-04-15T14:48:37.007Z,99417.81
2023-04-15T14:51:05.655Z,99418.84
2023-04-15T14:53:34.188Z,99413.28
2023-04-15T14:56:02.289Z,99421.38
2023-04-15T14:58:32.984Z,99420.53
2023-04-15T15:01:01.972Z,99412.44
2023-04-15T15:03:30.645Z,99413.28
2023-04-15T15:05:58.912Z,99414.13
2023-04-15T15:08:27.264Z,99418.66
2023-04-15T15:10:55.336Z,99423.22
2023-04-15T15:13:23.643Z,99415.13
2023-04-15T15:15:53.300Z,99426.75
2023-04-15T15:18:21.701Z,99423.22
2023-04-15T15:20:49.875Z,99427.59
2023-04-15T15:23:18.061Z,99428.59
2023-04-15T15:25:49.259Z,99427.75
2023-04-15T15:28:17.474Z,99434.00
2023-04-15T15:30:45.775Z,99437.53
2023-04-15T15:33:16.145Z,99439.38
2023-04-15T15:35:44.253Z,99443.09
2023-04-15T15:38:13.033Z,99451.00
2023-04-15T15:40:41.437Z,99453.88
2023-04-15T15:43:09.736Z,99453.03
2023-04-15T15:45:37.814Z,99463.78
2023-04-15T15:48:07.417Z,99465.66
2023-04-15T15:50:37.122Z,99468.34
2023-04-15T15:53:05.475Z,99467.50
2023-04-15T15:55:36.027Z,99468.50
2023-04-15T15:58:04.320Z,99469.47
2023-04-15T16:00:32.528Z,99486.50
2023-04-15T16:05:31.712Z,99483.94
2023-04-15T16:08:01.267Z,99481.41
2023-04-15T16:10:29.451Z,99479.03
2023-04-15T16:12:57.718Z,99485.13
2023-04-15T16:15:27.018Z,99483.41
2023-04-15T16:17:55.212Z,99491.34
2023-04-15T16:20:23.387Z,99493.19
2023-04-15T16:22:51.569Z,99499.59
2023-04-15T16:25:21.260Z,99494.19
2023-04-15T16:27:59.314Z,99501.28
2023-04-15T16:30:30.112Z,99499.59
2023-04-15T16:32:58.447Z,99485.59
2023-04-15T16:35:26.604Z,99501.59
2023-04-15T16:37:54.805Z,99495.19
2023-04-15T16:40:24.423Z,99495.19
2023-04-15T16:42:53.149Z,99492.50
2023-04-15T16:45:24.890Z,99495.03
2023-04-15T16:47:54.294Z,99497.91
2023-04-15T16:50:22.952Z,99510.38
2023-04-15T16:52:51.124Z,99512.22
2023-04-15T16:55:19.263Z,99521.16
2023-04-15T16:58:02.492Z,99523.00
2023-04-15T17:00:32.180Z,99520.44
2023-04-15T17:03:01.465Z,99525.16
2023-04-15T17:05:30.605Z,99535.63
2023-04-15T17:07:58.985Z,99533.63
2023-04-15T17:10:27.551Z,99542.09
2023-04-15T17:12:59.199Z,99546.72
2023-04-15T17:15:27.549Z,99548.34
2023-04-15T17:17:56.006Z,99552.38
2023-04-15T17:20:24.319Z,99552.97
2023-04-15T17:22:52.506Z,99559.19
2023-04-15T17:25:20.865Z,99560.78
2023-04-15T17:27:49.036Z,99555.47
2023-04-15T17:30:18.649Z,99575.66
2023-04-15T17:32:46.930Z,99573.72
2023-04-15T17:35:15.142Z,99576.44
2023-04-15T17:37:43.248Z,99578.06
2023-04-15T17:40:12.545Z,99573.41
2023-04-15T17:42:40.707Z,99581.41
2023-04-15T17:45:10.179Z,99584.28
2023-04-15T17:47:39.719Z,99581.69
2023-04-15T17:50:09.279Z,99593.38
2023-04-15T17:52:37.640Z,99587.69
2023-04-15T17:55:06.597Z,99587.56
2023-04-15T17:57:34.924Z,99588.63
2023-04-15T18:00:03.702Z,99595.59
2023-04-15T18:02:33.736Z,99600.00
2023-04-15T18:05:05.322Z,99593.13
2023-04-15T18:07:33.570Z,99603.44
2023-04-15T18:10:01.981Z,99602.94
2023-04-15T18:12:30.228Z,99600.91
2023-04-15T18:14:58.338Z,99614.94
2023-04-15T18:17:26.505Z,99619.88
2023-04-15T18:19:54.624Z,99613.28
2023-04-15T18:22:24.220Z,99611.25
2023-04-15T18:24:52.316Z,99619.91
2023-04-15T18:27:20.489Z,99628.22
2023-04-15T18:29:48.673Z,99629.44
2023-04-15T18:32:16.833Z,99639.41
2023-04-15T18:34:44.963Z,99640.59
2023-04-15T18:37:13.046Z,99641.81
2023-04-15T18:39:42.633Z,99647.38
2023-04-15T18:42:10.697Z,99653.16
2023-04-15T18:44:38.793Z,99654.69
2023-04-15T18:47:09.009Z,99662.63
2023-04-15T18:49:37.776Z,99667.03
2023-04-15T18:52:06.632Z,99669.91
2023-04-15T18:54:34.892Z,99679.88
2023-04-15T18:57:04.829Z,99685.47
2023-04-15T18:59:33.710Z,99683.94
2023-04-15T19:02:03.660Z,99684.13
2023-04-15T19:04:31.886Z,99687.13
2023-04-15T19:07:00.159Z,99699.16
2023-04-15T19:09:32.500Z,99695.94
2023-04-15T19:12:00.574Z,99697.28
2023-04-15T19:14:30.177Z,99694.22
2023-04-15T19:16:58.591Z,99709.75
2023-04-15T19:19:27.054Z,99711.97
2023-04-15T19:21:56.005Z,99723.97
2023-04-15T19:24:24.725Z,99718.88
2023-04-15T19:26:52.720Z,99723.59
2023-04-15T19:29:21.916Z,99715.97
2023-04-15T19:31:51.701Z,99718.84
2023-04-15T19:34:20.025Z,99727.44
2023-04-15T19:36:48.263Z,99730.63
2023-04-15T19:39:16.409Z,99733.31
2023-04-15T19:41:44.833Z,99738.34
2023-04-15T19:44:13.677Z,99740.38
2023-04-15T19:46:44.113Z,99738.00
2023-04-15T19:49:13.710Z,99743.56
2023-04-15T19:51:42.676Z,99742.19
2023-04-15T19:54:11.064Z,99741.66
2023-04-15T19:56:39.208Z,99741.97
2023-04-15T19:59:10.177Z,99744.84
2023-04-15T20:01:38.669Z,99746.00
2023-04-15T20:04:07.023Z,99749.22
2023-04-15T20:06:36.489Z,99755.59
2023-04-15T20:09:05.072Z,99756.94
2023-04-15T20:12:48.438Z,99756.41
2023-04-15T20:14:21.613Z,99756.72
2023-04-15T20:16:49.708Z,99759.75
2023-04-15T20:19:17.943Z,99761.94
2023-04-15T20:21:47.690Z,99768.47
2023-04-15T20:24:15.840Z,99763.41
2023-04-15T20:26:46.542Z,99760.34
2023-04-15T20:29:14.920Z,99764.88
2023-04-15T20:31:43.232Z,99766.03
2023-04-15T20:34:12.220Z,99766.34
2023-04-15T20:36:40.426Z,99767.53
2023-04-15T20:39:09.941Z,99763.41
2023-04-15T20:41:38.184Z,99762.56
2023-04-15T20:44:06.288Z,99768.66
2023-04-15T20:46:34.367Z,99762.97
2023-04-15T20:49:02.489Z,99772.84
2023-04-15T20:51:37.186Z,99779.28
2023-04-15T20:54:05.629Z,99776.34
2023-04-15T20:56:35.167Z,99780.09
2023-04-15T20:59:03.491Z,99780.16
2023-04-15T21:01:31.684Z,99784.78
2023-04-15T21:04:05.534Z,99787.81
2023-04-15T21:06:34.333Z,99789.06
2023-04-15T21:09:02.775Z,99799.25
2023-04-15T21:11:53.156Z,99800.59
2023-04-15T21:14:20.447Z,99802.34
2023-04-15T21:16:48.618Z,99801.44
2023-04-15T21:19:16.886Z,99796.03
2023-04-15T21:21:45.079Z,99802.63
2023-04-15T21:24:13.112Z,99811.75
2023-04-15T21:26:43.601Z,99807.50
2023-04-15T21:29:12.174Z,99816.63
2023-04-15T21:31:42.122Z,99816.09
2023-04-15T21:34:10.636Z,99827.09
2023-04-15T21:36:39.350Z,99827.25
2023-04-15T21:39:07.914Z,99829.25
2023-04-15T21:41:37.779Z,99828.88
2023-04-15T21:44:06.145Z,99832.59
2023-04-15T21:46:35.568Z,99832.75
2023-04-15T21:49:07.040Z,99833.06
2023-04-15T21:51:35.582Z,99831.53
2023-04-15T21:54:03.732Z,99830.00
2023-04-15T21:56:31.768Z,99836.56
2023-04-15T21:58:59.985Z,99836.88
2023-04-15T22:01:28.284Z,99834.31
2023-04-15T22:03:56.496Z,99839.22
2023-04-15T22:06:27.115Z,99838.53
2023-04-15T22:08:57.408Z,99842.38
2023-04-15T22:11:28.196Z,99849.78
2023-04-15T22:13:56.998Z,99846.41
2023-04-15T22:16:26.557Z,99847.56
2023-04-15T22:18:55.026Z,99850.56
2023-04-15T22:21:23.320Z,99855.28
2023-04-15T22:23:53.218Z,99858.31
2023-04-15T22:26:41.288Z,99866.69
2023-04-15T22:29:09.451Z,99858.75
2023-04-15T22:31:37.590Z,99852.13
2023-04-15T22:34:05.810Z,99847.75
2023-04-15T22:36:33.848Z,99853.44
2023-04-15T22:39:03.851Z,99856.28
2023-04-15T22:41:32.229Z,99856.63
2023-04-15T22:44:00.420Z,99857.78
2023-04-15T22:46:28.569Z,99858.91
2023-04-15T22:48:56.892Z,99862.78
2023-04-15T22:51:27.930Z,99869.34
2023-04-15T22:53:56.283Z,99865.91
2023-04-15T22:56:25.855Z,99869.75
2023-04-15T22:58:53.866Z,99874.47
2023-04-15T23:01:22.004Z,99865.81
2023-04-15T23:03:57.780Z,99869.53
2023-04-15T23:06:32.695Z,99871.50
2023-04-15T23:09:01.609Z,99866.44
2023-04-15T23:11:31.185Z,99865.75
2023-04-15T23:13:59.223Z,99866.91
2023-04-15T23:16:28.261Z,99866.19
2023-04-15T23:18:56.434Z,99871.88
2023-04-15T23:21:26.058Z,99866.50
2023-04-15T23:23:56.713Z,99861.41
2023-04-15T23:26:24.938Z,99860.72
2023-04-15T23:28:54.408Z,99860.00
2023-04-15T23:31:23.026Z,99866.38
2023-04-15T23:33:51.377Z,99869.41
2023-04-15T23:36:19.494Z,99871.41
2023-04-15T23:38:47.941Z,99875.13
2023-04-15T23:41:16.092Z,99877.09
2023-04-15T23:43:44.148Z,99880.78
2023-04-15T23:46:13.599Z,99887.34
2023-04-15T23:48:41.931Z,99886.94
2023-04-15T23:51:10.069Z,99887.78
2023-04-15T23:53:38.286Z,99888.78
2023-04-15T23:56:06.966Z,99892.47
2023-04-15T23:58:35.020Z,99896.19
